Time;durP1;ratioP1;P1;durP2;ratioP2;P2;SDS_P1;SDS_P2;PMS_P1;PMS_P2;Temp;Humidity;BMP_temperature;BMP_pressure;BME280_temperature;BME280_humidity;BME280_pressure;Samples;Min_cycle;Max_cycle;Signal;HPM_P1;HPM_P2
2021/07/11 04:33:17;;;;;;;2.73;2.53;;;16.20;99.90;;;;;;4931868;29;20515;-71
2021/07/11 04:35:42;;;;;;;2.80;2.60;;;16.20;99.90;;;;;;4935632;29;20416;-72
2021/07/11 04:38:08;;;;;;;2.47;2.37;;;16.20;99.90;;;;;;4935241;29;20505;-72
2021/07/11 04:40:37;;;;;;;2.17;1.97;;;16.20;99.90;;;;;;4938467;29;20224;-71
2021/07/11 04:43:03;;;;;;;2.30;2.20;;;16.30;99.90;;;;;;4954387;28;20184;-72
2021/07/11 04:45:29;;;;;;;2.27;2.17;;;16.30;99.90;;;;;;4954767;28;20421;-72
2021/07/11 04:47:54;;;;;;;3.37;2.57;;;16.30;99.90;;;;;;4954320;28;20187;-72
2021/07/11 04:50:20;;;;;;;2.93;2.33;;;16.40;99.90;;;;;;4954302;28;20264;-72
2021/07/11 04:52:48;;;;;;;2.23;2.03;;;16.40;99.90;;;;;;4954240;28;20212;-72
2021/07/11 04:55:17;;;;;;;2.00;1.90;;;16.40;99.90;;;;;;4954192;28;20184;-72
2021/07/11 04:57:43;;;;;;;3.33;2.10;;;16.40;99.90;;;;;;4953799;28;20534;-72
2021/07/11 05:00:13;;;;;;;3.80;2.90;;;16.50;99.90;;;;;;4954235;28;20418;-72
2021/07/11 05:02:39;;;;;;;1.83;1.73;;;16.50;99.90;;;;;;4953264;28;20421;-72
2021/07/11 05:05:07;;;;;;;2.43;2.33;;;16.50;99.90;;;;;;4953262;28;20430;-72
2021/07/11 05:07:40;;;;;;;2.20;2.10;;;16.50;99.90;;;;;;4953420;28;20183;-72
2021/07/11 05:10:11;;;;;;;1.93;1.83;;;16.60;99.90;;;;;;4953137;28;20788;-72
2021/07/11 05:12:37;;;;;;;2.30;1.53;;;16.60;99.90;;;;;;4952300;28;20428;-73
2021/07/11 05:15:04;;;;;;;3.53;2.40;;;16.60;99.90;;;;;;4953323;28;20423;-73
2021/07/11 05:17:30;;;;;;;6.00;2.17;;;16.60;99.90;;;;;;4953417;28;20820;-72
2021/07/11 05:19:56;;;;;;;10.20;2.50;;;16.60;99.90;;;;;;4953361;29;20417;-72
2021/07/11 05:22:21;;;;;;;3.90;2.70;;;16.60;99.90;;;;;;4951887;29;20231;-73
2021/07/11 05:24:47;;;;;;;2.80;2.43;;;16.60;99.90;;;;;;4953145;28;20180;-73
2021/07/11 05:27:13;;;;;;;2.37;2.20;;;16.60;99.90;;;;;;4951872;28;20183;-73
2021/07/11 05:29:38;;;;;;;1.90;1.80;;;16.70;99.90;;;;;;4952994;28;20177;-72
2021/07/11 05:32:05;;;;;;;1.90;1.80;;;16.60;99.90;;;;;;4952740;28;20782;-74
2021/07/11 05:34:33;;;;;;;3.37;2.83;;;16.70;99.90;;;;;;4953231;28;20192;-74
2021/07/11 05:37:03;;;;;;;2.67;2.40;;;16.70;99.90;;;;;;4953206;28;20408;-73
2021/07/11 05:39:28;;;;;;;4.00;2.80;;;16.70;99.90;;;;;;4953233;28;20467;-73
2021/07/11 05:41:54;;;;;;;2.50;2.30;;;16.80;99.90;;;;;;4953209;28;20886;-74
2021/07/11 05:44:19;;;;;;;14.27;2.43;;;16.90;99.90;;;;;;4952955;28;20240;-73
2021/07/11 05:46:45;;;;;;;4.37;2.60;;;16.90;99.90;;;;;;4953166;28;20244;-74
2021/07/11 05:49:12;;;;;;;2.27;2.13;;;17.10;99.90;;;;;;4952909;28;20180;-73
2021/07/11 05:51:38;;;;;;;2.27;2.17;;;17.10;99.90;;;;;;4953162;28;20432;-73
2021/07/11 05:54:03;;;;;;;2.00;1.90;;;17.30;99.90;;;;;;4952814;28;20424;-74
2021/07/11 05:56:29;;;;;;;3.10;2.00;;;17.40;99.90;;;;;;4953181;28;20281;-74
2021/07/11 05:58:54;;;;;;;1.77;1.67;;;17.50;99.90;;;;;;4952860;28;20200;-73
2021/07/11 06:01:21;;;;;;;3.27;2.13;;;17.50;99.90;;;;;;4952948;28;20282;-75
2021/07/11 06:03:46;;;;;;;2.33;2.10;;;17.60;99.90;;;;;;4952724;28;20181;-75
2021/07/11 06:06:12;;;;;;;2.70;1.90;;;17.70;99.90;;;;;;4952957;28;20531;-75
2021/07/11 06:08:37;;;;;;;4.23;2.10;;;17.80;99.90;;;;;;4953091;28;20227;-75
2021/07/11 06:11:03;;;;;;;2.63;2.00;;;17.90;99.90;;;;;;4964829;23;20543;-77
2021/07/11 06:13:28;;;;;;;2.60;2.47;;;18.10;99.90;;;;;;4955940;29;20177;-77
2021/07/11 06:15:54;;;;;;;3.07;2.03;;;18.30;99.90;;;;;;4955028;28;20177;-77
2021/07/11 06:18:20;;;;;;;2.17;1.97;;;18.30;99.90;;;;;;4956424;28;20267;-77
2021/07/11 06:20:45;;;;;;;2.30;2.20;;;18.40;99.90;;;;;;4956126;28;20192;-77
2021/07/11 06:23:11;;;;;;;2.60;1.77;;;18.40;99.90;;;;;;4956325;28;20187;-77
2021/07/11 06:25:37;;;;;;;1.93;1.53;;;18.60;99.90;;;;;;4956324;29;20173;-77
2021/07/11 06:28:04;;;;;;;3.70;2.10;;;19.20;99.90;;;;;;4956132;29;20641;-78
2021/07/11 06:30:29;;;;;;;1.67;1.57;;;19.60;99.90;;;;;;4956163;28;20436;-78
2021/07/11 06:32:55;;;;;;;2.23;1.90;;;20.10;99.90;;;;;;4956014;28;20432;-78
2021/07/11 06:35:22;;;;;;;4.27;2.53;;;20.60;99.90;;;;;;4956926;28;20173;-79
2021/07/11 06:37:49;;;;;;;4.03;2.20;;;21.00;99.90;;;;;;4957212;29;20212;-79
2021/07/11 06:40:16;;;;;;;1.97;1.87;;;21.20;99.90;;;;;;4957598;28;20416;-79
2021/07/11 06:42:43;;;;;;;2.07;1.50;;;21.60;99.90;;;;;;4956315;28;20525;-79
2021/07/11 06:45:09;;;;;;;3.20;1.63;;;22.10;99.90;;;;;;4956976;29;20798;-80
2021/07/11 06:47:35;;;;;;;2.13;2.03;;;22.10;99.90;;;;;;4957051;28;20412;-79
2021/07/11 06:50:01;;;;;;;1.47;1.20;;;21.50;99.90;;;;;;4956908;28;20408;-79
2021/07/11 06:52:27;;;;;;;4.33;2.00;;;21.10;99.90;;;;;;4957385;28;20440;-79
2021/07/11 06:54:53;;;;;;;1.67;1.40;;;21.30;99.90;;;;;;4958530;28;20637;-80
2021/07/11 06:57:19;;;;;;;2.23;1.53;;;21.50;99.90;;;;;;4956395;28;20177;-79
2021/07/11 06:59:45;;;;;;;1.87;1.40;;;21.40;99.90;;;;;;4957040;29;20420;-80
2021/07/11 07:02:12;;;;;;;1.70;1.60;;;21.80;99.90;;;;;;4957987;28;20195;-79
2021/07/11 07:04:38;;;;;;;2.40;2.00;;;21.70;99.90;;;;;;4957047;29;20608;-81
2021/07/11 07:07:04;;;;;;;2.50;1.80;;;21.70;99.90;;;;;;4957202;28;20732;-78
2021/07/11 07:09:29;;;;;;;1.80;1.70;;;21.90;99.90;;;;;;4956300;28;20665;-78
2021/07/11 07:11:55;;;;;;;2.27;2.07;;;22.10;99.90;;;;;;4956423;29;20239;-78
2021/07/11 07:14:20;;;;;;;1.70;1.60;;;22.20;99.90;;;;;;4956496;29;20232;-79
2021/07/11 07:16:49;;;;;;;1.40;1.30;;;21.90;99.90;;;;;;4956664;28;20176;-79
2021/07/11 07:19:14;;;;;;;3.50;2.53;;;22.00;99.90;;;;;;4955841;28;20267;-77
2021/07/11 07:21:40;;;;;;;1.57;1.47;;;22.40;99.90;;;;;;4956087;29;20429;-79
2021/07/11 07:24:05;;;;;;;1.43;1.30;;;22.30;99.90;;;;;;4956854;28;20642;-78
2021/07/11 07:26:31;;;;;;;1.63;1.53;;;22.60;99.90;;;;;;4956432;29;20172;-79
2021/07/11 07:28:56;;;;;;;3.63;1.90;;;23.00;99.90;;;;;;4955771;28;20629;-79
2021/07/11 07:31:22;;;;;;;5.23;1.60;;;23.40;99.90;;;;;;4955506;29;20204;-79
2021/07/11 07:33:48;;;;;;;3.73;2.00;;;23.80;99.90;;;;;;4956550;29;20176;-80
2021/07/11 07:36:14;;;;;;;1.50;1.40;;;23.90;99.90;;;;;;4956776;29;20282;-79
2021/07/11 07:38:39;;;;;;;2.03;1.30;;;24.10;99.90;;;;;;4954691;28;20573;-79
2021/07/11 07:41:05;;;;;;;1.83;1.73;;;24.40;99.90;;;;;;4955866;28;20571;-79
2021/07/11 07:43:30;;;;;;;2.07;1.90;;;24.20;99.90;;;;;;4955941;28;20173;-79
2021/07/11 07:45:57;;;;;;;1.40;1.30;;;23.70;99.90;;;;;;4956392;28;20212;-80
2021/07/11 07:48:22;;;;;;;1.87;1.40;;;23.40;99.90;;;;;;4956252;28;20654;-79
2021/07/11 07:50:48;;;;;;;1.67;1.30;;;23.10;99.90;;;;;;4956574;29;20467;-79
2021/07/11 07:53:13;;;;;;;4.53;1.37;;;22.80;99.90;;;;;;4955959;28;20212;-81
2021/07/11 07:55:39;;;;;;;1.80;1.70;;;22.50;99.90;;;;;;4956560;28;20551;-79
2021/07/11 07:58:06;;;;;;;1.30;1.30;;;22.10;99.90;;;;;;4955232;28;20215;-80
2021/07/11 08:00:32;;;;;;;2.30;2.10;;;21.70;99.90;;;;;;4956671;29;20200;-80
2021/07/11 08:02:59;;;;;;;3.97;2.27;;;21.70;99.90;;;;;;4955990;28;20435;-81
2021/07/11 08:05:30;;;;;;;2.13;1.40;;;21.70;99.90;;;;;;4956723;28;20912;-80
2021/07/11 08:08:02;;;;;;;1.97;1.87;;;21.60;99.90;;;;;;4955709;28;20713;-79
2021/07/11 08:10:28;;;;;;;2.30;1.50;;;21.60;99.90;;;;;;4956235;28;20463;-80
2021/07/11 08:12:53;;;;;;;2.90;1.60;;;21.30;99.90;;;;;;4955842;29;20433;-80
2021/07/11 08:15:22;;;;;;;1.73;1.50;;;21.20;99.90;;;;;;4956584;29;20180;-80
2021/07/11 08:17:55;;;;;;;1.60;1.50;;;21.10;99.90;;;;;;4956169;28;20555;-80
2021/07/11 08:20:23;;;;;;;1.60;1.50;;;21.40;99.90;;;;;;4955947;28;20408;-79
2021/07/11 08:22:50;;;;;;;1.43;1.30;;;22.00;99.90;;;;;;4954517;28;20783;-79
2021/07/11 08:28:06;;;;;;;2.13;1.70;;;23.30;99.90;;;;;;4947488;28;20444;-77
2021/07/11 08:30:43;;;;;;;4.10;1.40;;;23.60;99.90;;;;;;4953895;28;20511;-79
2021/07/11 08:33:10;;;;;;;2.30;1.70;;;23.40;99.90;;;;;;4953958;29;20226;-79
2021/07/11 08:35:37;;;;;;;2.03;1.50;;;23.10;99.90;;;;;;4955807;28;20423;-78
2021/07/11 08:38:08;;;;;;;1.47;1.37;;;22.80;99.90;;;;;;4953659;29;20467;-79
2021/07/11 08:40:39;;;;;;;3.10;1.70;;;22.40;99.90;;;;;;4956443;28;20440;-78
2021/07/11 08:43:06;;;;;;;2.00;1.90;;;22.20;99.90;;;;;;4955228;29;20532;-78
2021/07/11 08:45:34;;;;;;;1.33;1.23;;;21.70;99.90;;;;;;4954791;29;20420;-76
2021/07/11 08:48:00;;;;;;;1.40;1.30;;;22.10;99.90;;;;;;4954233;28;20451;-77
2021/07/11 08:50:26;;;;;;;3.80;1.40;;;22.50;99.90;;;;;;4954708;28;20427;-77
2021/07/11 08:52:58;;;;;;;1.37;1.10;;;22.90;99.90;;;;;;4953062;28;20428;-77
2021/07/11 08:55:27;;;;;;;3.03;1.60;;;22.90;99.90;;;;;;4955858;28;20693;-77
2021/07/11 08:57:59;;;;;;;1.50;1.40;;;23.00;99.90;;;;;;4955486;29;20510;-80
2021/07/11 09:00:56;;;;;;;2.63;1.43;;;23.00;99.90;;;;;;4954960;28;20443;-80
2021/07/11 09:03:21;;;;;;;1.13;1.13;;;22.70;99.90;;;;;;4955280;28;20444;-79
2021/07/11 09:05:54;;;;;;;1.57;1.20;;;22.60;99.90;;;;;;4955332;28;20886;-79
2021/07/11 09:08:23;;;;;;;1.30;1.20;;;22.10;99.90;;;;;;4955056;28;20187;-80
2021/07/11 09:10:57;;;;;;;2.70;1.27;;;22.30;99.90;;;;;;4955399;28;20448;-82
2021/07/11 09:13:25;;;;;;;1.53;1.43;;;22.20;99.90;;;;;;4955433;28;20417;-80
2021/07/11 09:15:54;;;;;;;2.80;1.73;;;22.10;99.90;;;;;;4955144;28;20608;-79
2021/07/11 09:18:33;;;;;;;1.40;1.30;;;21.70;99.90;;;;;;4954021;29;20463;-80
2021/07/11 09:21:11;;;;;;;2.20;1.57;;;21.60;99.90;;;;;;4954579;28;20436;-80
2021/07/11 09:23:46;;;;;;;2.83;1.60;;;21.40;99.90;;;;;;4952396;29;20523;-80
2021/07/11 09:26:23;;;;;;;1.57;1.47;;;21.30;99.90;;;;;;4952384;29;20419;-80
2021/07/11 09:28:54;;;;;;;1.40;1.33;;;21.30;99.90;;;;;;4954347;28;20466;-80
2021/07/11 09:31:23;;;;;;;1.40;1.30;;;21.40;99.90;;;;;;4956994;28;20436;-80
2021/07/11 09:33:57;;;;;;;1.43;1.20;;;21.40;99.90;;;;;;4956141;28;20796;-80
2021/07/11 09:36:27;;;;;;;1.50;1.40;;;21.40;99.90;;;;;;4956662;29;20435;-80
2021/07/11 09:39:03;;;;;;;2.70;1.50;;;21.50;99.90;;;;;;4953517;28;20499;-77
2021/07/11 09:41:32;;;;;;;2.60;1.50;;;21.60;99.90;;;;;;4952815;29;20436;-77
2021/07/11 09:44:06;;;;;;;1.47;1.37;;;21.70;99.90;;;;;;4950889;28;20479;-77
2021/07/11 09:46:35;;;;;;;1.73;1.03;;;21.90;99.90;;;;;;4952963;28;20416;-77
2021/07/11 09:49:03;;;;;;;1.60;1.50;;;21.90;99.90;;;;;;4951690;28;20830;-77
2021/07/11 09:51:34;;;;;;;1.47;1.33;;;21.90;99.90;;;;;;4953036;28;20441;-78
2021/07/11 09:54:16;;;;;;;2.43;1.47;;;22.00;99.90;;;;;;4951028;28;20428;-76
2021/07/11 09:56:46;;;;;;;4.23;1.60;;;22.20;99.90;;;;;;4952829;28;20424;-77
2021/07/11 09:59:21;;;;;;;1.90;1.80;;;22.40;99.90;;;;;;4953172;29;21060;-77
2021/07/11 10:01:50;;;;;;;4.20;2.07;;;22.60;99.90;;;;;;4952669;28;20443;-77
2021/07/11 10:04:18;;;;;;;1.57;1.47;;;22.70;99.90;;;;;;4952750;29;20515;-77
2021/07/11 10:06:44;;;;;;;1.50;1.40;;;22.90;99.90;;;;;;4952547;28;20537;-76
2021/07/11 10:09:11;;;;;;;1.50;1.40;;;22.90;99.90;;;;;;4952591;28;20439;-77
2021/07/11 10:11:40;;;;;;;3.37;1.27;;;23.10;99.90;;;;;;4952512;28;20235;-77
2021/07/11 10:14:06;;;;;;;1.33;1.23;;;23.20;99.90;;;;;;4952070;29;20479;-77
2021/07/11 10:16:40;;;;;;;2.50;1.50;;;23.20;99.90;;;;;;4952728;29;20428;-77
2021/07/11 10:19:09;;;;;;;3.47;1.50;;;23.10;99.90;;;;;;4952245;28;20629;-77
2021/07/11 10:21:37;;;;;;;1.77;1.60;;;23.10;99.90;;;;;;4952656;29;20436;-77
2021/07/11 10:24:26;;;;;;;1.57;1.47;;;23.10;99.90;;;;;;4952072;28;21078;-77
2021/07/11 10:26:57;;;;;;;6.50;2.00;;;22.90;99.90;;;;;;4952322;28;20444;-77
2021/07/11 10:29:28;;;;;;;2.20;1.33;;;23.10;99.90;;;;;;4952709;28;20430;-77
2021/07/11 10:31:57;;;;;;;1.70;1.60;;;23.10;99.90;;;;;;4952729;28;20447;-77
2021/07/11 10:34:37;;;;;;;2.27;1.87;;;23.20;99.90;;;;;;4952018;28;20960;-77
2021/07/11 10:37:20;;;;;;;2.03;1.70;;;23.60;99.90;;;;;;4951168;28;20443;-77
2021/07/11 10:39:46;;;;;;;4.50;2.03;;;23.70;99.90;;;;;;4952101;28;20423;-77
2021/07/11 10:42:14;;;;;;;4.10;1.70;;;23.90;99.90;;;;;;4951324;28;20956;-77
2021/07/11 10:44:40;;;;;;;2.23;1.47;;;24.00;99.90;;;;;;4950816;28;20271;-77
2021/07/11 10:47:06;;;;;;;1.90;1.37;;;24.30;99.90;;;;;;4952156;29;20587;-77
2021/07/11 10:49:38;;;;;;;3.33;1.53;;;24.00;99.90;;;;;;4953042;28;20546;-78
2021/07/11 10:52:06;;;;;;;4.30;1.70;;;23.70;99.90;;;;;;4953470;28;20949;-78
2021/07/11 10:54:34;;;;;;;1.60;1.50;;;23.70;99.90;;;;;;4952782;28;20425;-78
2021/07/11 10:57:20;;;;;;;1.83;1.70;;;23.60;99.90;;;;;;4957121;29;20620;-78
2021/07/11 10:59:48;;;;;;;1.67;1.57;;;23.30;99.90;;;;;;4956425;28;20420;-78
2021/07/11 11:02:27;;;;;;;1.53;1.47;;;23.50;99.90;;;;;;4955889;28;20496;-78
2021/07/11 11:05:01;;;;;;;1.43;1.33;;;23.70;99.90;;;;;;4956553;28;20888;-77
2021/07/11 11:07:39;;;;;;;1.37;1.27;;;23.30;99.90;;;;;;4956533;28;20412;-78
2021/07/11 11:10:27;;;;;;;1.90;1.50;;;23.30;99.90;;;;;;4955023;28;20427;-78
2021/07/11 11:13:28;;;;;;;3.93;1.70;;;23.30;99.90;;;;;;4956608;28;20466;-79
2021/07/11 11:15:59;;;;;;;1.30;1.20;;;23.20;99.90;;;;;;4957081;28;20463;-78
2021/07/11 11:18:30;;;;;;;2.70;1.17;;;23.20;99.90;;;;;;4957185;29;20474;-79
2021/07/11 11:21:03;;;;;;;1.20;1.10;;;22.90;99.90;;;;;;4957454;28;20428;-79
2021/07/11 11:23:47;;;;;;;2.80;1.93;;;23.00;99.90;;;;;;4956696;28;20439;-78
2021/07/11 11:26:18;;;;;;;1.87;1.20;;;23.10;99.90;;;;;;4958531;28;20416;-81
2021/07/11 11:28:44;;;;;;;1.60;1.50;;;23.10;99.90;;;;;;4956713;28;20424;-81
2021/07/11 11:31:16;;;;;;;1.30;1.30;;;23.00;99.90;;;;;;4957231;29;20440;-80
2021/07/11 11:34:16;;;;;;;1.23;1.23;;;23.00;99.90;;;;;;4957768;28;20322;-80
2021/07/11 11:36:48;;;;;;;2.37;1.57;;;23.10;99.90;;;;;;4958159;28;20440;-81
2021/07/11 11:39:18;;;;;;;1.33;1.23;;;23.30;99.90;;;;;;4957161;28;20828;-81
2021/07/11 11:41:50;;;;;;;4.60;1.03;;;23.30;99.90;;;;;;4959250;28;20432;-81
2021/07/11 11:44:20;;;;;;;2.40;1.50;;;23.50;99.90;;;;;;4958655;28;20416;-80
2021/07/11 11:46:50;;;;;;;1.70;1.60;;;23.30;99.90;;;;;;4956129;28;20408;-81
2021/07/11 11:49:20;;;;;;;1.83;1.20;;;23.20;99.90;;;;;;4956976;28;20948;-81
2021/07/11 11:51:50;;;;;;;1.77;1.67;;;23.50;99.90;;;;;;4958106;28;20539;-80
2021/07/11 11:54:22;;;;;;;1.60;1.50;;;23.80;99.90;;;;;;4955610;28;20440;-80
2021/07/11 11:56:47;;;;;;;1.20;1.20;;;23.80;99.90;;;;;;4956129;29;20436;-81
2021/07/11 11:59:17;;;;;;;1.83;1.73;;;24.00;99.90;;;;;;4957815;28;20475;-81
2021/07/11 12:01:46;;;;;;;1.67;1.57;;;23.90;99.90;;;;;;4957728;28;20193;-79
2021/07/11 12:04:16;;;;;;;1.03;1.03;;;24.20;99.90;;;;;;4956447;28;20428;-78
2021/07/11 12:06:47;;;;;;;4.80;1.37;;;24.20;99.90;;;;;;4955509;28;20793;-79
2021/07/11 12:09:16;;;;;;;1.87;1.77;;;24.30;99.90;;;;;;4956419;28;20420;-79
2021/07/11 12:11:59;;;;;;;1.53;1.43;;;24.20;99.90;;;;;;4956327;28;20460;-79
2021/07/11 12:14:25;;;;;;;1.47;1.37;;;24.30;99.90;;;;;;4954923;28;20426;-79
2021/07/11 12:16:59;;;;;;;1.83;1.57;;;24.40;99.90;;;;;;4956272;29;20416;-78
2021/07/11 12:19:25;;;;;;;1.50;1.20;;;24.50;99.90;;;;;;4955705;28;20485;-78
2021/07/11 12:21:53;;;;;;;5.13;1.50;;;24.10;99.90;;;;;;4956509;28;20428;-78
2021/07/11 12:24:23;;;;;;;1.40;1.30;;;24.40;99.90;;;;;;4956120;28;20168;-79
2021/07/11 12:26:56;;;;;;;1.67;1.47;;;24.60;99.90;;;;;;4957754;29;20598;-79
2021/07/11 12:29:30;;;;;;;1.60;1.50;;;24.60;99.90;;;;;;4954630;28;20436;-78
2021/07/11 12:32:06;;;;;;;1.60;1.50;;;24.70;99.90;;;;;;4954894;28;20577;-78
2021/07/11 12:34:33;;;;;;;1.30;1.20;;;24.70;99.90;;;;;;4955358;28;20794;-79
2021/07/11 12:37:04;;;;;;;1.83;1.73;;;24.80;99.90;;;;;;4955515;28;20957;-78
2021/07/11 12:39:30;;;;;;;1.50;1.40;;;24.90;99.90;;;;;;4955151;28;20487;-79
2021/07/11 12:41:56;;;;;;;1.60;1.50;;;24.80;99.90;;;;;;4954976;28;20854;-79
2021/07/11 12:44:37;;;;;;;1.40;1.30;;;24.80;99.90;;;;;;4956236;29;20463;-79
2021/07/11 12:47:09;;;;;;;1.50;1.40;;;24.80;99.90;;;;;;4955951;28;20416;-78
2021/07/11 12:49:36;;;;;;;1.63;1.53;;;24.80;99.90;;;;;;4955594;28;20416;-78
2021/07/11 12:52:07;;;;;;;1.60;1.20;;;24.80;99.90;;;;;;4955648;28;20945;-79
2021/07/11 12:54:33;;;;;;;1.53;1.43;;;24.60;99.90;;;;;;4955399;28;20416;-78
2021/07/11 12:57:06;;;;;;;3.57;1.27;;;24.40;99.90;;;;;;4955253;28;20435;-79
2021/07/11 12:59:45;;;;;;;1.27;1.17;;;24.30;99.90;;;;;;4954734;28;20267;-79
2021/07/11 13:02:17;;;;;;;1.40;1.30;;;24.30;99.90;;;;;;4956672;28;20526;-79
2021/07/11 13:04:52;;;;;;;1.27;1.17;;;24.20;99.90;;;;;;4956512;28;20425;-80
2021/07/11 13:07:21;;;;;;;1.57;1.47;;;24.00;99.90;;;;;;4956412;28;20435;-79
2021/07/11 13:09:51;;;;;;;2.13;1.20;;;24.00;99.90;;;;;;4955737;28;20420;-80
2021/07/11 13:12:17;;;;;;;1.30;1.20;;;24.00;99.90;;;;;;4955816;28;20459;-79
2021/07/11 13:14:52;;;;;;;1.20;1.10;;;24.00;99.90;;;;;;4955608;29;20523;-79
2021/07/11 13:17:18;;;;;;;1.43;1.10;;;23.90;99.90;;;;;;4954869;28;20181;-79
2021/07/11 13:19:44;;;;;;;2.70;1.50;;;23.90;99.90;;;;;;4954676;28;20795;-80
2021/07/11 13:22:09;;;;;;;2.87;1.23;;;23.60;99.90;;;;;;4954324;29;20444;-79
2021/07/11 13:24:37;;;;;;;1.97;1.20;;;23.50;99.90;;;;;;4954036;29;20353;-79
2021/07/11 13:27:03;;;;;;;1.60;1.50;;;23.40;99.90;;;;;;4955184;28;20177;-78
2021/07/11 13:29:29;;;;;;;1.37;1.20;;;23.40;99.90;;;;;;4953860;29;20428;-79
2021/07/11 13:31:55;;;;;;;1.77;1.67;;;23.50;99.90;;;;;;4953717;29;20216;-79
2021/07/11 13:34:20;;;;;;;1.60;1.50;;;23.30;99.90;;;;;;4954557;29;20188;-79
2021/07/11 13:36:46;;;;;;;1.53;1.40;;;23.20;99.90;;;;;;4955339;28;20637;-80
2021/07/11 13:39:14;;;;;;;1.50;1.40;;;23.20;99.90;;;;;;4953828;28;20222;-79
2021/07/11 13:41:40;;;;;;;5.00;1.40;;;23.40;99.90;;;;;;4954891;28;20413;-79
2021/07/11 13:44:06;;;;;;;1.60;1.50;;;23.50;99.90;;;;;;4954314;29;20420;-79
2021/07/11 13:46:31;;;;;;;1.67;1.30;;;23.50;99.90;;;;;;4955355;28;20177;-79
2021/07/11 13:48:59;;;;;;;1.40;1.30;;;23.40;99.90;;;;;;4954282;28;20193;-80
2021/07/11 13:51:25;;;;;;;1.80;1.70;;;23.60;99.90;;;;;;4953799;28;20204;-79
2021/07/11 13:53:51;;;;;;;1.40;1.27;;;23.70;99.90;;;;;;4954504;28;20431;-78
2021/07/11 13:56:19;;;;;;;1.73;1.63;;;23.60;99.90;;;;;;4952069;28;20420;-78
2021/07/11 13:58:51;;;;;;;1.40;0.97;;;23.70;99.90;;;;;;4952887;29;20209;-76
2021/07/11 14:01:17;;;;;;;1.90;1.40;;;23.90;99.90;;;;;;4953231;29;20851;-78
2021/07/11 14:03:42;;;;;;;1.80;1.70;;;24.10;99.90;;;;;;4951321;28;20507;-78
2021/07/11 14:06:14;;;;;;;1.33;1.20;;;24.30;99.90;;;;;;4953856;28;20177;-78
2021/07/11 14:08:40;;;;;;;1.53;1.40;;;24.30;99.90;;;;;;4953186;28;20185;-78
2021/07/11 14:11:11;;;;;;;1.37;1.27;;;24.40;99.90;;;;;;4952898;28;20510;-78
2021/07/11 14:13:37;;;;;;;2.20;1.47;;;24.00;99.90;;;;;;4953349;28;20424;-78
2021/07/11 14:16:05;;;;;;;1.57;1.47;;;23.90;99.90;;;;;;4953583;29;20808;-78
2021/07/11 14:18:31;;;;;;;1.83;1.40;;;23.90;99.90;;;;;;4952269;29;20356;-78
2021/07/11 14:21:02;;;;;;;1.43;1.33;;;23.60;99.90;;;;;;4953228;29;20464;-77
2021/07/11 14:23:28;;;;;;;2.73;1.40;;;23.60;99.90;;;;;;4951960;28;20259;-78
2021/07/11 14:25:54;;;;;;;1.57;1.47;;;23.60;99.90;;;;;;4952877;28;20417;-78
2021/07/11 14:28:19;;;;;;;1.63;1.43;;;23.90;99.90;;;;;;4953031;28;20423;-78
2021/07/11 14:30:45;;;;;;;1.80;1.23;;;24.00;99.90;;;;;;4954963;28;20212;-78
2021/07/11 14:33:11;;;;;;;1.50;1.40;;;24.40;99.90;;;;;;4957156;28;20200;-77
2021/07/11 14:35:39;;;;;;;1.70;1.60;;;24.60;99.90;;;;;;4957178;28;20188;-79
2021/07/11 14:38:06;;;;;;;3.00;1.60;;;24.20;99.90;;;;;;4959479;28;20200;-79
2021/07/11 14:40:32;;;;;;;1.20;1.10;;;24.00;99.90;;;;;;4958650;29;20802;-78
2021/07/11 14:42:58;;;;;;;2.07;1.63;;;23.90;99.90;;;;;;4958750;28;20452;-79
2021/07/11 14:45:24;;;;;;;1.77;1.40;;;24.00;99.90;;;;;;4958520;28;20959;-79
2021/07/11 14:47:52;;;;;;;1.33;1.20;;;24.10;99.90;;;;;;4957358;28;20184;-79
2021/07/11 14:50:18;;;;;;;1.53;1.20;;;24.00;99.90;;;;;;4956699;28;20235;-79
2021/07/11 14:52:44;;;;;;;1.73;1.47;;;24.10;99.90;;;;;;4958786;28;20443;-80
2021/07/11 14:55:10;;;;;;;3.63;1.10;;;24.10;99.90;;;;;;4957590;29;20660;-78
2021/07/11 14:57:37;;;;;;;2.03;1.37;;;24.00;99.90;;;;;;4958301;28;20177;-78
2021/07/11 15:00:07;;;;;;;1.13;1.03;;;24.10;99.90;;;;;;4958071;29;20781;-78
2021/07/11 15:02:33;;;;;;;0.93;0.80;;;24.00;99.90;;;;;;4957194;28;20436;-78
2021/07/11 15:04:58;;;;;;;1.20;1.10;;;24.20;99.90;;;;;;4957859;29;20416;-78
2021/07/11 15:07:24;;;;;;;1.20;1.20;;;24.00;99.90;;;;;;4958764;29;20260;-80
2021/07/11 15:09:49;;;;;;;1.60;1.50;;;23.80;99.90;;;;;;4961174;28;20181;-79
2021/07/11 15:12:15;;;;;;;1.20;1.00;;;23.60;99.90;;;;;;4959176;28;20558;-79
2021/07/11 15:14:41;;;;;;;2.50;1.47;;;23.60;99.90;;;;;;4958852;29;20673;-79
2021/07/11 15:17:06;;;;;;;1.07;1.07;;;23.60;99.90;;;;;;4958575;28;20515;-79
2021/07/11 15:19:36;;;;;;;3.17;1.20;;;23.50;99.90;;;;;;4958890;28;20508;-79
2021/07/11 15:22:04;;;;;;;0.90;0.90;;;23.50;99.90;;;;;;4957436;28;20224;-78
2021/07/11 15:24:30;;;;;;;1.30;1.13;;;23.60;99.90;;;;;;4957444;28;20408;-79
2021/07/11 15:26:56;;;;;;;4.03;1.77;;;23.80;99.90;;;;;;4956457;28;20415;-79
2021/07/11 15:29:22;;;;;;;1.40;1.30;;;23.90;99.90;;;;;;4957573;28;20176;-79
2021/07/11 15:31:49;;;;;;;1.23;1.13;;;23.90;99.90;;;;;;4957318;28;20201;-79
2021/07/11 15:34:17;;;;;;;2.70;1.60;;;23.80;99.90;;;;;;4957591;28;20412;-79
2021/07/11 15:36:44;;;;;;;1.50;1.33;;;23.60;99.90;;;;;;4957307;28;20431;-78
2021/07/11 15:39:10;;;;;;;2.57;1.30;;;23.50;99.90;;;;;;4955915;28;20839;-80
2021/07/11 15:41:36;;;;;;;2.30;1.60;;;23.50;99.90;;;;;;4958503;28;20429;-78
2021/07/11 15:44:01;;;;;;;1.40;1.30;;;23.40;99.90;;;;;;4955663;28;20211;-79
2021/07/11 15:46:27;;;;;;;1.20;1.10;;;23.20;99.90;;;;;;4958016;29;20168;-78
2021/07/11 15:48:53;;;;;;;1.10;1.10;;;23.20;99.90;;;;;;4956979;29;20176;-78
2021/07/11 15:51:19;;;;;;;1.63;1.17;;;23.20;99.90;;;;;;4956789;28;20224;-78
2021/07/11 15:53:44;;;;;;;1.63;1.20;;;23.10;99.90;;;;;;4956687;28;20408;-78
2021/07/11 15:56:10;;;;;;;1.40;1.30;;;23.00;99.90;;;;;;4955607;28;20192;-78
2021/07/11 15:58:36;;;;;;;1.60;1.10;;;23.00;99.90;;;;;;4956502;28;20217;-78
2021/07/11 16:01:01;;;;;;;1.60;1.50;;;22.80;99.90;;;;;;4956316;28;20196;-78
2021/07/11 16:03:27;;;;;;;1.60;1.50;;;22.80;99.90;;;;;;4955910;28;20181;-78
2021/07/11 16:05:53;;;;;;;1.20;1.10;;;22.70;99.90;;;;;;4964297;23;20164;-77
2021/07/11 16:08:18;;;;;;;2.53;1.20;;;22.60;99.90;;;;;;4964001;28;20200;-77
2021/07/11 16:10:44;;;;;;;2.20;1.67;;;22.60;99.90;;;;;;4974617;28;20246;-76
2021/07/11 16:13:10;;;;;;;1.30;1.00;;;22.50;99.90;;;;;;4974441;28;20837;-77
2021/07/11 16:15:36;;;;;;;1.27;1.27;;;22.60;99.90;;;;;;4974552;28;20175;-77
2021/07/11 16:18:02;;;;;;;1.10;0.90;;;22.70;99.90;;;;;;4989260;28;20231;-77
2021/07/11 16:20:28;;;;;;;1.47;1.37;;;22.70;99.90;;;;;;4974438;28;20506;-77
2021/07/11 16:22:54;;;;;;;3.70;1.20;;;22.70;99.90;;;;;;4988852;28;20519;-76
2021/07/11 16:25:21;;;;;;;3.07;1.30;;;22.60;99.90;;;;;;4974498;28;20546;-77
2021/07/11 16:27:49;;;;;;;1.63;1.27;;;22.70;99.90;;;;;;4989286;28;20186;-76
2021/07/11 16:30:16;;;;;;;1.70;1.60;;;22.80;99.90;;;;;;4974198;28;20948;-76
2021/07/11 16:32:42;;;;;;;3.70;1.43;;;22.80;99.90;;;;;;4973949;28;20486;-75
2021/07/11 16:35:09;;;;;;;1.43;1.07;;;22.70;99.90;;;;;;4974029;28;20980;-76
2021/07/11 16:37:36;;;;;;;2.87;0.83;;;22.60;99.90;;;;;;4974778;28;20192;-76
2021/07/11 16:40:07;;;;;;;1.63;1.33;;;22.60;99.90;;;;;;4989001;28;20854;-76
2021/07/11 16:42:33;;;;;;;2.90;1.23;;;22.50;99.90;;;;;;4974099;28;20427;-75
2021/07/11 16:44:59;;;;;;;2.00;1.13;;;22.40;99.90;;;;;;4973482;28;20416;-76
2021/07/11 16:47:24;;;;;;;2.60;1.33;;;22.30;99.90;;;;;;4974317;28;20211;-76
2021/07/11 16:49:49;;;;;;;1.80;1.40;;;22.30;99.90;;;;;;4974319;28;20180;-77
2021/07/11 16:52:15;;;;;;;1.20;1.10;;;22.40;99.90;;;;;;4973519;28;20208;-77
2021/07/11 16:54:41;;;;;;;1.30;0.90;;;22.40;99.90;;;;;;4973695;28;20183;-77
2021/07/11 16:57:06;;;;;;;2.03;1.83;;;22.30;99.90;;;;;;4974325;28;20293;-77
2021/07/11 16:59:32;;;;;;;10.10;4.43;;;22.30;99.90;;;;;;4973757;28;20576;-77
2021/07/11 17:01:57;;;;;;;2.50;1.30;;;22.20;99.90;;;;;;4973610;28;20326;-76
2021/07/11 17:04:23;;;;;;;1.37;1.10;;;22.20;99.90;;;;;;4973495;28;20180;-77
2021/07/11 17:06:48;;;;;;;1.50;1.23;;;22.20;99.90;;;;;;4973271;28;20203;-76
2021/07/11 17:09:14;;;;;;;1.03;1.03;;;22.10;99.90;;;;;;4973535;28;20653;-76
2021/07/11 17:11:40;;;;;;;1.50;1.30;;;22.00;99.90;;;;;;4973391;28;20689;-76
2021/07/11 17:14:07;;;;;;;1.53;1.43;;;22.00;99.90;;;;;;4973085;28;20555;-77
2021/07/11 17:16:33;;;;;;;2.73;1.83;;;22.00;99.90;;;;;;4973433;28;20308;-77
2021/07/11 17:18:59;;;;;;;2.17;1.93;;;22.00;99.90;;;;;;4972962;28;20459;-77
2021/07/11 17:21:25;;;;;;;3.10;2.40;;;21.90;99.90;;;;;;4973192;28;20435;-77
2021/07/11 17:23:52;;;;;;;2.50;1.50;;;21.90;99.90;;;;;;4972887;28;20415;-77
2021/07/11 17:26:18;;;;;;;34.43;24.27;;;21.90;99.90;;;;;;4973194;28;20173;-77